createdAt,value
2018-06-18T00:01:53.550Z,58.50
2018-06-18T00:04:20.934Z,58.60
2018-06-18T00:06:48.352Z,58.50
2018-06-18T00:09:15.743Z,58.40
2018-06-18T00:11:43.659Z,58.40
2018-06-18T00:14:11.499Z,58.30
2018-06-18T00:16:38.914Z,58.20
2018-06-18T00:19:06.304Z,58.10
2018-06-18T00:21:33.992Z,58.00
2018-06-18T00:24:01.547Z,58.00
2018-06-18T00:26:28.956Z,57.90
2018-06-18T00:31:23.907Z,57.60
2018-06-18T00:33:51.338Z,57.50
2018-06-18T00:36:18.735Z,57.50
2018-06-18T00:38:46.156Z,57.50
2018-06-18T00:41:13.550Z,57.40
2018-06-18T00:43:40.943Z,57.40
2018-06-18T00:46:08.315Z,57.30
2018-06-18T00:48:35.706Z,57.40
2018-06-18T00:51:03.110Z,58.00
2018-06-18T00:53:30.501Z,57.30
2018-06-18T00:56:09.039Z,57.20
2018-06-18T00:58:37.026Z,57.10
2018-06-18T01:01:04.428Z,57.20
2018-06-18T01:03:31.839Z,57.30
2018-06-18T01:05:59.211Z,57.50
2018-06-18T01:08:26.608Z,57.50
2018-06-18T01:10:54.030Z,57.00
2018-06-18T01:13:21.440Z,57.50
2018-06-18T01:15:48.880Z,57.60
2018-06-18T01:18:16.299Z,57.60
2018-06-18T01:20:43.699Z,57.60
2018-06-18T01:24:19.394Z,57.60
2018-06-18T01:26:46.880Z,57.50
2018-06-18T01:29:14.254Z,57.40
2018-06-18T01:31:41.667Z,57.60
2018-06-18T01:34:26.782Z,57.80
2018-06-18T01:36:54.574Z,58.00
2018-06-18T01:39:22.623Z,57.80
2018-06-18T01:41:50.380Z,58.00
2018-06-18T01:44:17.951Z,58.60
2018-06-18T01:46:45.328Z,58.10
2018-06-18T01:49:12.711Z,58.10
2018-06-18T01:51:40.134Z,58.30
2018-06-18T01:54:07.506Z,58.30
2018-06-18T01:56:34.875Z,58.30
2018-06-18T01:59:02.264Z,58.40
2018-06-18T02:01:30.049Z,58.40
2018-06-18T02:03:57.497Z,58.40
2018-06-18T02:06:24.911Z,58.40
2018-06-18T02:08:52.298Z,58.40
2018-06-18T02:11:19.698Z,59.20
2018-06-18T02:13:47.109Z,59.00
2018-06-18T02:16:14.490Z,58.40
2018-06-18T02:18:41.891Z,58.40
2018-06-18T02:21:09.499Z,58.50
2018-06-18T02:23:36.912Z,58.50
2018-06-18T02:26:04.328Z,58.40
2018-06-18T02:28:37.308Z,58.40
2018-06-18T02:31:10.517Z,58.40
2018-06-18T02:33:43.624Z,58.40
2018-06-18T02:36:16.579Z,58.60
2018-06-18T02:38:49.903Z,58.50
2018-06-18T02:41:17.279Z,58.50
2018-06-18T02:43:44.690Z,58.40
2018-06-18T02:46:12.136Z,58.40
2018-06-18T02:48:39.515Z,58.40
2018-06-18T02:51:06.921Z,58.50
2018-06-18T02:53:34.315Z,58.50
2018-06-18T02:56:01.775Z,58.50
2018-06-18T02:58:29.158Z,58.70
2018-06-18T03:00:56.549Z,58.80
2018-06-18T03:03:23.943Z,58.90
2018-06-18T03:05:51.389Z,58.80
2018-06-18T03:08:18.787Z,58.80
2018-06-18T03:10:46.212Z,59.40
2018-06-18T03:13:13.607Z,59.50
2018-06-18T03:15:41.075Z,59.50
2018-06-18T03:18:13.099Z,59.60
2018-06-18T03:20:46.427Z,59.50
2018-06-18T03:23:19.594Z,59.50
2018-06-18T03:25:52.770Z,59.70
2018-06-18T03:28:26.023Z,59.90
2018-06-18T03:30:53.428Z,59.90
2018-06-18T03:33:20.855Z,60.00
2018-06-18T03:35:48.257Z,60.10
2018-06-18T03:38:15.631Z,60.00
2018-06-18T03:40:43.047Z,60.10
2018-06-18T03:43:10.420Z,60.30
2018-06-18T03:45:37.800Z,60.20
2018-06-18T03:48:07.637Z,60.20
2018-06-18T03:50:35.279Z,60.10
2018-06-18T03:53:02.676Z,60.00
2018-06-18T03:55:40.266Z,60.10
2018-06-18T03:58:08.207Z,60.00
2018-06-18T04:00:46.431Z,60.00
2018-06-18T04:03:19.485Z,60.00
2018-06-18T04:05:52.610Z,59.90
2018-06-18T04:08:20.006Z,59.90
2018-06-18T04:10:53.294Z,59.80
2018-06-18T04:13:20.703Z,59.80
2018-06-18T04:15:48.111Z,59.80
2018-06-18T04:18:15.519Z,59.80
2018-06-18T04:20:46.872Z,59.80
2018-06-18T04:23:14.520Z,59.80
2018-06-18T04:25:41.933Z,59.80
2018-06-18T04:28:09.519Z,59.90
2018-06-18T04:30:36.907Z,59.80
2018-06-18T04:33:04.955Z,59.80
2018-06-18T04:35:32.342Z,59.70
2018-06-18T04:37:59.759Z,59.70
2018-06-18T04:40:27.167Z,59.80
2018-06-18T04:43:00.320Z,59.80
2018-06-18T04:45:33.528Z,59.80
2018-06-18T04:48:06.745Z,59.80
2018-06-18T04:50:39.870Z,59.70
2018-06-18T04:53:07.296Z,59.60
2018-06-18T04:55:34.693Z,59.50
2018-06-18T04:58:02.190Z,59.40
2018-06-18T05:01:05.789Z,59.50
2018-06-18T05:06:00.709Z,59.60
2018-06-18T05:10:42.956Z,59.40
2018-06-18T05:13:10.392Z,59.40
2018-06-18T05:15:39.232Z,59.30
2018-06-18T05:18:06.922Z,59.40
2018-06-18T05:20:34.349Z,59.30
2018-06-18T05:23:01.797Z,59.30
2018-06-18T05:25:30.395Z,59.30
2018-06-18T05:27:57.799Z,59.20
2018-06-18T05:30:27.855Z,59.20
2018-06-18T05:32:55.317Z,59.10
2018-06-18T05:35:22.755Z,59.00
2018-06-18T05:38:13.411Z,59.10
2018-06-18T05:40:40.830Z,59.10
2018-06-18T05:43:08.422Z,59.10
2018-06-18T05:45:35.891Z,59.10
2018-06-18T05:48:03.422Z,59.80
2018-06-18T05:50:30.973Z,59.20
2018-06-18T05:52:58.365Z,59.30
2018-06-18T05:55:25.805Z,59.20
2018-06-18T05:57:53.257Z,59.40
2018-06-18T06:00:20.778Z,59.40
2018-06-18T06:02:48.205Z,59.40
2018-06-18T06:05:15.654Z,59.50
2018-06-18T06:10:10.555Z,59.70
2018-06-18T06:12:38.017Z,59.70
2018-06-18T06:15:05.536Z,59.80
2018-06-18T06:17:32.999Z,59.50
2018-06-18T06:20:00.435Z,59.30
2018-06-18T06:22:27.951Z,59.20
2018-06-18T06:24:55.556Z,59.10
2018-06-18T06:27:22.959Z,58.90
2018-06-18T06:29:50.375Z,58.80
2018-06-18T06:32:17.825Z,59.50
2018-06-18T06:34:49.647Z,58.70
2018-06-18T06:37:17.171Z,58.80
2018-06-18T06:39:44.625Z,58.50
2018-06-18T06:42:15.683Z,58.30
2018-06-18T06:44:43.174Z,58.20
2018-06-18T06:47:10.575Z,57.80
2018-06-18T06:49:38.039Z,57.80
2018-06-18T06:52:05.536Z,57.30
2018-06-18T06:54:32.975Z,57.70
2018-06-18T06:57:00.441Z,57.90
2018-06-18T06:59:27.888Z,57.30
2018-06-18T07:01:55.415Z,57.40
2018-06-18T07:04:22.843Z,57.50
2018-06-18T07:06:50.345Z,57.00
2018-06-18T07:09:17.798Z,56.80
2018-06-18T07:11:45.499Z,57.40
2018-06-18T07:14:12.911Z,57.00
2018-06-18T07:16:40.556Z,56.60
2018-06-18T07:19:07.976Z,56.30
2018-06-18T07:21:35.588Z,55.60
2018-06-18T07:24:03.039Z,55.10
2018-06-18T07:26:30.453Z,55.00
2018-06-18T07:28:57.878Z,54.30
2018-06-18T07:31:25.276Z,54.10
2018-06-18T07:33:52.686Z,54.10
2018-06-18T07:36:20.413Z,54.40
2018-06-18T07:38:47.844Z,54.30
2018-06-18T07:41:15.241Z,54.70
2018-06-18T07:43:42.659Z,54.70
2018-06-18T07:48:37.430Z,55.10
2018-06-18T07:51:04.892Z,55.00
2018-06-18T07:53:32.339Z,54.40
2018-06-18T07:55:59.767Z,54.30
2018-06-18T07:58:27.169Z,54.00
2018-06-18T08:00:54.581Z,53.80
2018-06-18T08:03:22.013Z,53.90
2018-06-18T08:05:49.436Z,54.10
2018-06-18T08:08:16.823Z,54.20
2018-06-18T08:10:44.231Z,54.20
2018-06-18T08:13:11.611Z,54.30
2018-06-18T08:15:39.018Z,54.00
2018-06-18T08:18:06.516Z,53.70
2018-06-18T08:20:33.903Z,53.60
2018-06-18T08:23:01.380Z,53.40
2018-06-18T08:25:28.785Z,53.60
2018-06-18T08:27:56.191Z,54.10
2018-06-18T08:30:23.615Z,53.60
2018-06-18T08:32:51.060Z,53.50
2018-06-18T08:35:18.480Z,53.80
2018-06-18T08:37:45.937Z,54.20
2018-06-18T08:40:13.376Z,54.50
2018-06-18T08:42:40.867Z,54.80
2018-06-18T08:45:08.312Z,55.10
2018-06-18T08:47:35.723Z,55.20
2018-06-18T08:50:09.030Z,54.70
2018-06-18T08:52:42.050Z,54.50
2018-06-18T08:55:15.272Z,54.30
2018-06-18T08:57:48.497Z,54.20
2018-06-18T09:00:21.515Z,53.90
2018-06-18T09:02:54.767Z,53.80
2018-06-18T09:05:28.011Z,53.60
2018-06-18T09:08:06.020Z,53.70
2018-06-18T09:10:33.749Z,53.80
2018-06-18T09:13:01.146Z,54.00
2018-06-18T09:15:28.575Z,54.30
2018-06-18T09:17:55.988Z,54.40
2018-06-18T09:20:23.393Z,54.50
2018-06-18T09:22:50.823Z,54.60
2018-06-18T09:25:18.263Z,54.70
2018-06-18T09:30:13.099Z,55.10
2018-06-18T09:32:40.597Z,55.40
2018-06-18T09:35:07.943Z,55.50
2018-06-18T09:37:35.343Z,55.80
2018-06-18T09:40:02.897Z,56.00
2018-06-18T09:42:30.699Z,56.10
2018-06-18T09:44:58.115Z,56.30
2018-06-18T09:47:25.521Z,56.40
2018-06-18T09:49:58.726Z,56.70
2018-06-18T09:52:31.944Z,56.80
2018-06-18T09:55:05.098Z,57.50
2018-06-18T09:57:38.103Z,57.30
2018-06-18T10:00:09.589Z,57.60
2018-06-18T10:02:36.949Z,57.90
2018-06-18T10:05:04.334Z,57.80
2018-06-18T10:07:31.747Z,58.40
2018-06-18T10:09:59.148Z,58.70
2018-06-18T10:12:26.575Z,59.20
2018-06-18T10:14:54.013Z,59.80
2018-06-18T10:17:21.435Z,60.00
2018-06-18T10:19:49.891Z,60.40
2018-06-18T10:22:17.341Z,60.70
2018-06-18T10:24:44.800Z,61.30
2018-06-18T10:27:12.243Z,61.40
2018-06-18T10:29:39.677Z,61.60
2018-06-18T10:32:12.850Z,61.90
2018-06-18T10:34:46.031Z,61.70
2018-06-18T10:38:23.088Z,61.90
2018-06-18T10:40:56.339Z,61.70
2018-06-18T10:43:28.691Z,61.60
2018-06-18T10:45:56.432Z,61.80
2018-06-18T10:48:24.269Z,62.70
2018-06-18T10:50:51.821Z,62.20
2018-06-18T10:53:19.298Z,62.80
2018-06-18T10:55:46.748Z,63.10
2018-06-18T10:58:14.224Z,63.10
2018-06-18T11:00:41.705Z,63.40
2018-06-18T11:03:09.119Z,63.40
2018-06-18T11:05:42.349Z,63.50
2018-06-18T11:08:10.371Z,63.40
2018-06-18T11:10:37.784Z,63.10
2018-06-18T11:13:05.250Z,63.10
2018-06-18T11:15:32.712Z,63.60
2018-06-18T11:19:03.723Z,63.50
2018-06-18T11:21:36.928Z,63.60
2018-06-18T11:24:10.191Z,62.90
2018-06-18T11:26:43.332Z,63.10
2018-06-18T11:29:10.730Z,63.40
2018-06-18T11:31:38.140Z,63.40
2018-06-18T11:34:05.739Z,63.70
2018-06-18T11:36:33.307Z,63.70
2018-06-18T11:39:00.739Z,63.40
2018-06-18T11:41:28.179Z,63.30
2018-06-18T11:43:55.638Z,63.20
2018-06-18T11:46:23.066Z,63.40
2018-06-18T11:48:50.504Z,63.50
2018-06-18T11:51:17.964Z,63.50
2018-06-18T11:53:45.394Z,63.90
2018-06-18T11:56:12.886Z,63.90
2018-06-18T11:58:46.130Z,64.00
2018-06-18T12:01:20.164Z,63.40
2018-06-18T12:06:26.591Z,62.60
2018-06-18T12:08:59.880Z,62.70
2018-06-18T12:11:27.363Z,62.70
2018-06-18T12:13:54.778Z,62.70
2018-06-18T12:16:22.212Z,62.90
2018-06-18T12:18:49.674Z,62.50
2018-06-18T12:21:17.135Z,63.00
2018-06-18T12:23:44.553Z,63.20
2018-06-18T12:26:11.978Z,64.30
2018-06-18T12:28:39.516Z,64.40
2018-06-18T12:31:07.034Z,64.40
2018-06-18T12:33:34.530Z,63.60
2018-06-18T12:36:01.944Z,63.10
2018-06-18T12:38:29.380Z,62.60
2018-06-18T12:40:56.807Z,62.50
2018-06-18T12:43:26.385Z,62.10
2018-06-18T12:45:59.998Z,61.70
2018-06-18T12:48:33.088Z,61.40
2018-06-18T12:51:06.339Z,61.10
2018-06-18T12:53:39.579Z,61.30
2018-06-18T12:56:12.782Z,61.30
2018-06-18T12:58:40.215Z,61.40
2018-06-18T13:01:09.214Z,61.90
2018-06-18T13:03:36.683Z,62.70
2018-06-18T13:06:04.223Z,63.20
2018-06-18T13:08:31.679Z,63.70
2018-06-18T13:10:59.122Z,64.20
2018-06-18T13:13:26.610Z,63.70
2018-06-18T13:15:54.266Z,63.10
2018-06-18T13:18:21.716Z,62.20
2018-06-18T13:20:49.157Z,61.70
2018-06-18T13:23:16.589Z,61.10
2018-06-18T13:25:44.056Z,60.90
2018-06-18T13:28:14.314Z,60.70
2018-06-18T13:30:41.732Z,60.60
2018-06-18T13:33:09.686Z,60.80
2018-06-18T13:35:37.090Z,60.70
2018-06-18T13:38:10.385Z,60.40
2018-06-18T13:40:43.611Z,60.00
2018-06-18T13:43:16.775Z,59.60
2018-06-18T13:45:45.966Z,59.00
2018-06-18T13:48:18.974Z,58.30
2018-06-18T13:50:46.391Z,58.20
2018-06-18T13:53:13.787Z,58.20
2018-06-18T13:55:41.198Z,58.10
2018-06-18T13:58:08.654Z,58.10
2018-06-18T14:00:36.111Z,58.00
2018-06-18T14:03:03.525Z,57.60
2018-06-18T14:05:31.811Z,57.40
2018-06-18T14:07:59.215Z,57.40
2018-06-18T14:10:26.656Z,57.30
2018-06-18T14:12:56.105Z,57.40
2018-06-18T14:15:23.571Z,57.40
2018-06-18T14:17:50.929Z,57.40
2018-06-18T14:20:21.268Z,57.80
2018-06-18T14:22:48.721Z,58.10
2018-06-18T14:25:16.339Z,58.10
2018-06-18T14:27:43.724Z,57.60
2018-06-18T14:30:17.021Z,57.50
2018-06-18T14:35:23.620Z,57.20
2018-06-18T14:37:56.816Z,57.00
2018-06-18T14:40:24.261Z,57.10
2018-06-18T14:45:19.155Z,57.40
2018-06-18T14:47:46.581Z,57.50
2018-06-18T14:50:13.975Z,57.40
2018-06-18T14:52:41.624Z,57.70
2018-06-18T14:55:09.969Z,58.00
2018-06-18T14:57:37.379Z,58.20
2018-06-18T15:00:14.014Z,58.10
2018-06-18T15:02:41.523Z,58.30
2018-06-18T15:05:09.343Z,58.40
2018-06-18T15:07:36.748Z,58.40
2018-06-18T15:10:04.207Z,58.10
2018-06-18T15:12:35.204Z,57.80
2018-06-18T15:16:12.230Z,57.30
2018-06-18T15:18:39.643Z,57.00
2018-06-18T15:21:07.146Z,57.00
2018-06-18T15:23:34.505Z,57.20
2018-06-18T15:26:01.939Z,57.10
2018-06-18T15:28:29.323Z,57.40
2018-06-18T15:30:56.744Z,57.70
2018-06-18T15:33:24.192Z,57.90
2018-06-18T15:35:51.912Z,58.40
2018-06-18T15:38:19.395Z,57.50
2018-06-18T15:40:46.703Z,57.40
2018-06-18T15:43:14.076Z,57.10
2018-06-18T15:45:41.508Z,57.20
2018-06-18T15:48:08.961Z,56.80
2018-06-18T15:50:36.410Z,56.30
2018-06-18T15:53:03.875Z,56.50
2018-06-18T15:55:31.264Z,57.10
2018-06-18T15:57:58.681Z,56.20
2018-06-18T16:00:26.235Z,56.40
2018-06-18T16:02:53.755Z,55.40
2018-06-18T16:05:21.163Z,55.40
2018-06-18T16:07:48.620Z,55.60
2018-06-18T16:10:16.082Z,55.40
2018-06-18T16:12:43.529Z,55.20
2018-06-18T16:15:10.963Z,55.40
2018-06-18T16:17:38.402Z,55.80
2018-06-18T16:20:05.867Z,56.00
2018-06-18T16:22:33.319Z,56.10
2018-06-18T16:25:00.801Z,55.80
2018-06-18T16:27:28.151Z,55.80
2018-06-18T16:29:55.586Z,55.00
2018-06-18T16:32:23.007Z,54.30
2018-06-18T16:34:50.495Z,53.80
2018-06-18T16:37:17.919Z,53.30
2018-06-18T16:39:45.335Z,52.80
2018-06-18T16:42:12.760Z,52.70
2018-06-18T16:44:40.191Z,52.50
2018-06-18T16:47:07.625Z,52.70
2018-06-18T16:49:35.043Z,53.00
2018-06-18T16:52:02.509Z,53.00
2018-06-18T16:54:29.936Z,53.20
2018-06-18T16:56:57.356Z,53.40
2018-06-18T16:59:24.940Z,53.00
2018-06-18T17:01:52.346Z,53.10
2018-06-18T17:04:19.751Z,52.80
2018-06-18T17:06:47.228Z,52.70
2018-06-18T17:09:14.659Z,52.60
2018-06-18T17:11:42.076Z,52.80
2018-06-18T17:14:09.463Z,52.60
2018-06-18T17:16:36.907Z,52.60
2018-06-18T17:19:04.491Z,52.90
2018-06-18T17:21:31.945Z,53.20
2018-06-18T17:23:59.358Z,53.30
2018-06-18T17:26:26.813Z,53.50
2018-06-18T17:28:54.301Z,53.50
2018-06-18T17:31:21.701Z,53.30
2018-06-18T17:33:49.104Z,53.20
2018-06-18T17:36:18.016Z,53.20
2018-06-18T17:38:45.440Z,53.40
2018-06-18T17:41:12.864Z,53.50
2018-06-18T17:43:40.272Z,53.50
2018-06-18T17:46:07.712Z,53.60
2018-06-18T17:48:35.156Z,53.40
2018-06-18T17:51:02.563Z,53.10
2018-06-18T17:53:30.549Z,52.70
2018-06-18T17:55:57.977Z,52.30
2018-06-18T17:58:25.386Z,52.20
2018-06-18T18:03:20.229Z,52.20
2018-06-18T18:05:47.652Z,52.20
2018-06-18T18:08:15.062Z,52.80
2018-06-18T18:10:42.591Z,52.90
2018-06-18T18:13:10.718Z,52.60
2018-06-18T18:15:38.292Z,53.40
2018-06-18T18:18:05.684Z,52.70
2018-06-18T18:20:33.077Z,52.60
2018-06-18T18:23:00.858Z,52.00
2018-06-18T18:25:28.526Z,51.50
2018-06-18T18:27:55.998Z,51.50
2018-06-18T18:30:23.450Z,51.40
2018-06-18T18:32:50.917Z,50.60
2018-06-18T18:35:18.326Z,50.00
2018-06-18T18:37:45.832Z,50.60
2018-06-18T18:40:13.408Z,50.00
2018-06-18T18:42:41.731Z,50.10
2018-06-18T18:45:09.182Z,50.00
2018-06-18T18:47:39.675Z,50.10
2018-06-18T18:50:07.151Z,50.30
2018-06-18T18:52:34.603Z,50.30
2018-06-18T18:55:44.342Z,50.00
2018-06-18T18:58:23.380Z,49.80
2018-06-18T19:00:51.330Z,50.20
2018-06-18T19:03:24.062Z,50.10
2018-06-18T19:05:52.207Z,50.30
2018-06-18T19:08:29.800Z,50.00
2018-06-18T19:10:58.786Z,50.30
2018-06-18T19:13:29.599Z,50.20
2018-06-18T19:15:57.711Z,49.80
2018-06-18T19:23:23.398Z,49.60
2018-06-18T19:25:50.827Z,49.80
2018-06-18T19:28:18.251Z,49.90
2018-06-18T19:30:49.540Z,50.10
2018-06-18T19:33:19.415Z,50.20
2018-06-18T19:35:46.827Z,50.50
2018-06-18T19:38:14.248Z,50.60
2018-06-18T19:40:41.662Z,50.80
2018-06-18T19:43:09.089Z,51.10
2018-06-18T19:45:39.892Z,51.30
2018-06-18T19:48:17.419Z,51.80
2018-06-18T19:50:44.839Z,51.80
2018-06-18T19:53:12.280Z,52.10
2018-06-18T19:55:39.713Z,52.20
2018-06-18T19:58:07.145Z,52.60
2018-06-18T20:00:40.277Z,52.80
2018-06-18T20:03:07.697Z,52.90
2018-06-18T20:05:35.123Z,53.20
2018-06-18T20:08:05.247Z,53.50
2018-06-18T20:10:32.707Z,53.80
2018-06-18T20:13:00.152Z,54.10
2018-06-18T20:15:27.635Z,54.20
2018-06-18T20:17:55.028Z,55.10
2018-06-18T20:20:22.440Z,54.50
2018-06-18T20:22:49.878Z,54.40
2018-06-18T20:25:21.354Z,54.40
2018-06-18T20:27:48.747Z,54.60
2018-06-18T20:30:16.193Z,54.60
2018-06-18T20:32:43.603Z,54.80
2018-06-18T20:35:25.364Z,55.00
2018-06-18T20:37:52.766Z,55.10
2018-06-18T20:40:22.101Z,55.00
2018-06-18T20:42:49.550Z,55.20
2018-06-18T20:45:17.127Z,55.30
2018-06-18T20:47:44.556Z,55.40
2018-06-18T20:50:11.983Z,55.60
2018-06-18T20:52:40.342Z,55.70
2018-06-18T20:55:07.765Z,55.80
2018-06-18T20:57:35.188Z,55.80
2018-06-18T21:00:03.338Z,55.80
2018-06-18T21:02:30.872Z,56.00
2018-06-18T21:04:58.295Z,56.10
2018-06-18T21:07:25.759Z,56.50
2018-06-18T21:09:53.249Z,56.50
2018-06-18T21:12:20.679Z,56.80
2018-06-18T21:14:48.100Z,57.10
2018-06-18T21:17:15.551Z,57.30
2018-06-18T21:19:42.964Z,57.40
2018-06-18T21:22:10.367Z,57.90
2018-06-18T21:24:39.256Z,57.70
2018-06-18T21:27:06.772Z,57.80
2018-06-18T21:29:34.203Z,58.00
2018-06-18T21:32:01.694Z,57.90
2018-06-18T21:34:29.158Z,58.10
2018-06-18T21:36:56.623Z,58.20
2018-06-18T21:39:24.013Z,58.20
2018-06-18T21:41:51.400Z,58.30
2018-06-18T21:44:34.231Z,58.30
2018-06-18T21:47:01.675Z,58.30
2018-06-18T21:49:29.051Z,58.20
2018-06-18T21:51:56.704Z,58.50
2018-06-18T21:54:24.106Z,58.50
2018-06-18T21:56:51.514Z,58.30
2018-06-18T21:59:18.968Z,58.60
2018-06-18T22:01:46.444Z,58.60
2018-06-18T22:04:15.006Z,58.80
2018-06-18T22:06:42.483Z,59.10
2018-06-18T22:09:13.611Z,59.30
2018-06-18T22:11:42.007Z,59.30
2018-06-18T22:14:09.435Z,59.30
2018-06-18T22:16:37.096Z,59.20
2018-06-18T22:19:04.757Z,59.30
2018-06-18T22:21:32.163Z,59.20
2018-06-18T22:23:59.789Z,59.10
2018-06-18T22:26:27.212Z,59.20
2018-06-18T22:28:54.633Z,59.40
2018-06-18T22:31:22.049Z,59.20
2018-06-18T22:33:49.451Z,59.30
2018-06-18T22:36:16.863Z,59.30
2018-06-18T22:38:44.271Z,59.20
2018-06-18T22:43:39.229Z,59.20
2018-06-18T22:46:06.628Z,59.30
2018-06-18T22:48:34.046Z,59.40
2018-06-18T22:51:01.496Z,59.40
2018-06-18T22:53:28.942Z,59.40
2018-06-18T22:55:56.443Z,59.40
2018-06-18T22:58:23.878Z,59.40
2018-06-18T23:00:53.471Z,59.40
2018-06-18T23:03:20.890Z,59.50
2018-06-18T23:05:48.355Z,59.50
2018-06-18T23:08:15.770Z,59.60
2018-06-18T23:10:43.166Z,59.70
2018-06-18T23:13:10.656Z,60.00
2018-06-18T23:15:38.112Z,59.80
2018-06-18T23:18:05.585Z,59.90
2018-06-18T23:20:33.056Z,60.20
2018-06-18T23:23:00.493Z,61.00
2018-06-18T23:25:27.903Z,61.00
2018-06-18T23:27:55.331Z,60.40
2018-06-18T23:30:22.741Z,61.10
2018-06-18T23:32:50.199Z,60.50
2018-06-18T23:35:17.611Z,60.50
2018-06-18T23:37:45.084Z,60.50
2018-06-18T23:40:12.527Z,60.60
2018-06-18T23:42:39.943Z,60.70
2018-06-18T23:45:07.338Z,60.80
2018-06-18T23:47:35.036Z,61.00
2018-06-18T23:50:02.503Z,61.10
2018-06-18T23:52:29.963Z,61.10
2018-06-18T23:54:57.403Z,61.10
2018-06-18T23:57:24.847Z,61.20
2018-06-18T23:59:52.295Z,61.40
